sensor_id;sensor_type;location;lat;lon;timestamp;P1;durP1;ratioP1;P2;durP2;ratioP2
14268;SDS011;7218;51.480;7.006;2022-07-17T00:01:41;5.40;;;2.40;;
14268;SDS011;7218;51.480;7.006;2022-07-17T00:04:07;6.18;;;2.40;;
14268;SDS011;7218;51.480;7.006;2022-07-17T00:06:34;5.97;;;2.60;;
14268;SDS011;7218;51.480;7.006;2022-07-17T00:09:02;6.57;;;2.40;;
14268;SDS011;7218;51.480;7.006;2022-07-17T00:11:29;3.88;;;2.10;;
14268;SDS011;7218;51.480;7.006;2022-07-17T00:13:56;3.75;;;2.13;;
14268;SDS011;7218;51.480;7.006;2022-07-17T00:16:22;4.28;;;2.35;;
14268;SDS011;7218;51.480;7.006;2022-07-17T00:18:48;5.85;;;2.40;;
14268;SDS011;7218;51.480;7.006;2022-07-17T00:21:15;4.85;;;2.00;;
14268;SDS011;7218;51.480;7.006;2022-07-17T00:23:42;7.10;;;2.40;;
14268;SDS011;7218;51.480;7.006;2022-07-17T00:26:10;5.78;;;2.50;;
14268;SDS011;7218;51.480;7.006;2022-07-17T00:28:36;4.60;;;2.20;;
14268;SDS011;7218;51.480;7.006;2022-07-17T00:31:03;6.20;;;2.35;;
14268;SDS011;7218;51.480;7.006;2022-07-17T00:33:29;4.07;;;2.30;;
14268;SDS011;7218;51.480;7.006;2022-07-17T00:35:57;5.68;;;2.22;;
14268;SDS011;7218;51.480;7.006;2022-07-17T00:38:23;5.93;;;2.58;;
14268;SDS011;7218;51.480;7.006;2022-07-17T00:40:52;4.75;;;2.30;;
14268;SDS011;7218;51.480;7.006;2022-07-17T00:43:20;6.93;;;2.83;;
14268;SDS011;7218;51.480;7.006;2022-07-17T00:45:53;6.70;;;2.90;;
14268;SDS011;7218;51.480;7.006;2022-07-17T00:48:20;6.95;;;3.00;;
14268;SDS011;7218;51.480;7.006;2022-07-17T00:50:47;5.35;;;2.67;;
14268;SDS011;7218;51.480;7.006;2022-07-17T00:53:14;5.35;;;2.90;;
14268;SDS011;7218;51.480;7.006;2022-07-17T00:55:40;6.05;;;2.95;;
14268;SDS011;7218;51.480;7.006;2022-07-17T00:58:07;5.10;;;2.70;;
14268;SDS011;7218;51.480;7.006;2022-07-17T01:00:37;5.60;;;2.65;;
14268;SDS011;7218;51.480;7.006;2022-07-17T01:03:03;7.47;;;2.92;;
14268;SDS011;7218;51.480;7.006;2022-07-17T01:05:30;4.72;;;2.20;;
14268;SDS011;7218;51.480;7.006;2022-07-17T01:07:57;4.95;;;2.40;;
14268;SDS011;7218;51.480;7.006;2022-07-17T01:10:23;6.68;;;2.55;;
14268;SDS011;7218;51.480;7.006;2022-07-17T01:12:50;5.30;;;2.40;;
14268;SDS011;7218;51.480;7.006;2022-07-17T01:15:16;7.18;;;2.67;;
14268;SDS011;7218;51.480;7.006;2022-07-17T01:17:44;7.05;;;2.60;;
14268;SDS011;7218;51.480;7.006;2022-07-17T01:20:13;8.77;;;2.78;;
14268;SDS011;7218;51.480;7.006;2022-07-17T01:22:41;4.65;;;2.60;;
14268;SDS011;7218;51.480;7.006;2022-07-17T01:25:09;5.10;;;3.42;;
14268;SDS011;7218;51.480;7.006;2022-07-17T01:27:36;7.43;;;4.25;;
14268;SDS011;7218;51.480;7.006;2022-07-17T01:30:03;6.57;;;4.10;;
14268;SDS011;7218;51.480;7.006;2022-07-17T01:32:31;6.05;;;3.28;;
14268;SDS011;7218;51.480;7.006;2022-07-17T01:34:58;7.53;;;3.30;;
14268;SDS011;7218;51.480;7.006;2022-07-17T01:37:25;6.28;;;2.90;;
14268;SDS011;7218;51.480;7.006;2022-07-17T01:39:53;5.32;;;2.60;;
14268;SDS011;7218;51.480;7.006;2022-07-17T01:42:19;5.60;;;2.38;;
14268;SDS011;7218;51.480;7.006;2022-07-17T01:44:46;6.93;;;2.78;;
14268;SDS011;7218;51.480;7.006;2022-07-17T01:47:13;7.07;;;2.67;;
14268;SDS011;7218;51.480;7.006;2022-07-17T01:49:42;4.43;;;2.33;;
14268;SDS011;7218;51.480;7.006;2022-07-17T01:52:09;5.15;;;2.30;;
14268;SDS011;7218;51.480;7.006;2022-07-17T01:54:36;5.60;;;2.13;;
14268;SDS011;7218;51.480;7.006;2022-07-17T01:57:03;5.40;;;2.17;;
14268;SDS011;7218;51.480;7.006;2022-07-17T01:59:30;7.28;;;2.35;;
14268;SDS011;7218;51.480;7.006;2022-07-17T02:01:56;7.07;;;2.58;;
14268;SDS011;7218;51.480;7.006;2022-07-17T02:04:23;6.18;;;2.50;;
14268;SDS011;7218;51.480;7.006;2022-07-17T02:06:49;5.47;;;2.28;;
14268;SDS011;7218;51.480;7.006;2022-07-17T02:09:16;5.65;;;2.30;;
14268;SDS011;7218;51.480;7.006;2022-07-17T02:11:42;4.22;;;2.20;;
14268;SDS011;7218;51.480;7.006;2022-07-17T02:14:10;4.85;;;2.17;;
14268;SDS011;7218;51.480;7.006;2022-07-17T02:16:36;4.00;;;2.13;;
14268;SDS011;7218;51.480;7.006;2022-07-17T02:19:03;4.65;;;1.90;;
14268;SDS011;7218;51.480;7.006;2022-07-17T02:21:29;4.20;;;2.30;;
14268;SDS011;7218;51.480;7.006;2022-07-17T02:23:56;4.53;;;2.05;;
14268;SDS011;7218;51.480;7.006;2022-07-17T02:26:22;4.80;;;2.40;;
14268;SDS011;7218;51.480;7.006;2022-07-17T02:28:49;4.78;;;2.40;;
14268;SDS011;7218;51.480;7.006;2022-07-17T02:31:17;4.35;;;2.03;;
14268;SDS011;7218;51.480;7.006;2022-07-17T02:33:43;7.05;;;2.65;;
14268;SDS011;7218;51.480;7.006;2022-07-17T02:36:10;4.50;;;2.10;;
14268;SDS011;7218;51.480;7.006;2022-07-17T02:38:36;5.25;;;2.20;;
14268;SDS011;7218;51.480;7.006;2022-07-17T02:41:03;6.15;;;2.15;;
14268;SDS011;7218;51.480;7.006;2022-07-17T02:43:29;4.28;;;1.92;;
14268;SDS011;7218;51.480;7.006;2022-07-17T02:45:56;3.65;;;2.17;;
14268;SDS011;7218;51.480;7.006;2022-07-17T02:48:23;3.55;;;2.00;;
14268;SDS011;7218;51.480;7.006;2022-07-17T02:50:50;5.28;;;2.50;;
14268;SDS011;7218;51.480;7.006;2022-07-17T02:53:16;5.03;;;2.35;;
14268;SDS011;7218;51.480;7.006;2022-07-17T02:55:43;4.43;;;2.28;;
14268;SDS011;7218;51.480;7.006;2022-07-17T02:58:09;6.47;;;2.33;;
14268;SDS011;7218;51.480;7.006;2022-07-17T03:00:36;6.65;;;2.20;;
14268;SDS011;7218;51.480;7.006;2022-07-17T03:03:02;5.07;;;2.60;;
14268;SDS011;7218;51.480;7.006;2022-07-17T03:05:30;5.40;;;2.33;;
14268;SDS011;7218;51.480;7.006;2022-07-17T03:07:57;4.93;;;2.63;;
14268;SDS011;7218;51.480;7.006;2022-07-17T03:10:24;4.03;;;2.33;;
14268;SDS011;7218;51.480;7.006;2022-07-17T03:12:51;4.13;;;2.33;;
14268;SDS011;7218;51.480;7.006;2022-07-17T03:15:17;4.90;;;2.67;;
14268;SDS011;7218;51.480;7.006;2022-07-17T03:17:43;3.15;;;2.05;;
14268;SDS011;7218;51.480;7.006;2022-07-17T03:20:10;7.03;;;2.42;;
14268;SDS011;7218;51.480;7.006;2022-07-17T03:22:38;6.28;;;2.67;;
14268;SDS011;7218;51.480;7.006;2022-07-17T03:25:06;5.22;;;2.28;;
14268;SDS011;7218;51.480;7.006;2022-07-17T03:27:33;4.60;;;2.47;;
14268;SDS011;7218;51.480;7.006;2022-07-17T03:30:00;5.20;;;2.28;;
14268;SDS011;7218;51.480;7.006;2022-07-17T03:32:26;5.57;;;2.42;;
14268;SDS011;7218;51.480;7.006;2022-07-17T03:34:53;4.25;;;2.10;;
14268;SDS011;7218;51.480;7.006;2022-07-17T03:37:19;5.45;;;2.25;;
14268;SDS011;7218;51.480;7.006;2022-07-17T03:39:47;8.45;;;2.45;;
14268;SDS011;7218;51.480;7.006;2022-07-17T03:42:14;3.20;;;2.10;;
14268;SDS011;7218;51.480;7.006;2022-07-17T03:44:40;6.30;;;2.28;;
14268;SDS011;7218;51.480;7.006;2022-07-17T03:47:07;4.80;;;2.42;;
14268;SDS011;7218;51.480;7.006;2022-07-17T03:49:33;4.88;;;2.47;;
14268;SDS011;7218;51.480;7.006;2022-07-17T03:52:00;4.85;;;2.30;;
14268;SDS011;7218;51.480;7.006;2022-07-17T03:54:27;4.47;;;2.42;;
14268;SDS011;7218;51.480;7.006;2022-07-17T03:56:54;4.25;;;2.40;;
14268;SDS011;7218;51.480;7.006;2022-07-17T03:59:21;4.25;;;2.30;;
14268;SDS011;7218;51.480;7.006;2022-07-17T04:01:48;6.95;;;2.50;;
14268;SDS011;7218;51.480;7.006;2022-07-17T04:04:14;5.65;;;2.40;;
14268;SDS011;7218;51.480;7.006;2022-07-17T04:06:41;4.25;;;2.35;;
14268;SDS011;7218;51.480;7.006;2022-07-17T04:09:07;4.05;;;2.30;;
14268;SDS011;7218;51.480;7.006;2022-07-17T04:11:34;5.30;;;2.33;;
14268;SDS011;7218;51.480;7.006;2022-07-17T04:14:02;3.67;;;2.38;;
14268;SDS011;7218;51.480;7.006;2022-07-17T04:16:28;5.35;;;2.60;;
14268;SDS011;7218;51.480;7.006;2022-07-17T04:18:54;7.38;;;2.20;;
14268;SDS011;7218;51.480;7.006;2022-07-17T04:21:21;3.92;;;1.95;;
14268;SDS011;7218;51.480;7.006;2022-07-17T04:23:47;5.30;;;2.25;;
14268;SDS011;7218;51.480;7.006;2022-07-17T04:26:14;4.80;;;2.15;;
14268;SDS011;7218;51.480;7.006;2022-07-17T04:28:42;3.92;;;2.10;;
14268;SDS011;7218;51.480;7.006;2022-07-17T04:31:10;4.55;;;2.30;;
14268;SDS011;7218;51.480;7.006;2022-07-17T04:33:36;6.65;;;2.30;;
14268;SDS011;7218;51.480;7.006;2022-07-17T04:36:03;5.63;;;2.40;;
14268;SDS011;7218;51.480;7.006;2022-07-17T04:38:29;4.40;;;2.10;;
14268;SDS011;7218;51.480;7.006;2022-07-17T04:40:56;4.07;;;2.35;;
14268;SDS011;7218;51.480;7.006;2022-07-17T04:43:23;9.52;;;2.70;;
14268;SDS011;7218;51.480;7.006;2022-07-17T04:45:49;5.25;;;2.10;;
14268;SDS011;7218;51.480;7.006;2022-07-17T04:48:17;6.70;;;2.33;;
14268;SDS011;7218;51.480;7.006;2022-07-17T04:50:44;7.20;;;2.20;;
14268;SDS011;7218;51.480;7.006;2022-07-17T04:53:10;4.65;;;2.17;;
14268;SDS011;7218;51.480;7.006;2022-07-17T04:55:36;6.40;;;2.50;;
14268;SDS011;7218;51.480;7.006;2022-07-17T04:58:03;6.05;;;2.40;;
14268;SDS011;7218;51.480;7.006;2022-07-17T05:00:30;5.90;;;2.58;;
14268;SDS011;7218;51.480;7.006;2022-07-17T05:02:56;6.90;;;2.50;;
14268;SDS011;7218;51.480;7.006;2022-07-17T05:05:25;8.00;;;2.45;;
14268;SDS011;7218;51.480;7.006;2022-07-17T05:07:51;5.95;;;2.78;;
14268;SDS011;7218;51.480;7.006;2022-07-17T05:10:18;5.40;;;2.45;;
14268;SDS011;7218;51.480;7.006;2022-07-17T05:12:44;4.75;;;2.50;;
14268;SDS011;7218;51.480;7.006;2022-07-17T05:15:11;4.60;;;2.40;;
14268;SDS011;7218;51.480;7.006;2022-07-17T05:17:38;4.82;;;2.40;;
14268;SDS011;7218;51.480;7.006;2022-07-17T05:20:05;6.80;;;2.70;;
14268;SDS011;7218;51.480;7.006;2022-07-17T05:22:34;5.35;;;2.30;;
14268;SDS011;7218;51.480;7.006;2022-07-17T05:25:01;4.90;;;2.50;;
14268;SDS011;7218;51.480;7.006;2022-07-17T05:27:27;3.67;;;2.50;;
14268;SDS011;7218;51.480;7.006;2022-07-17T05:29:54;6.85;;;2.83;;
14268;SDS011;7218;51.480;7.006;2022-07-17T05:32:21;6.28;;;2.60;;
14268;SDS011;7218;51.480;7.006;2022-07-17T05:34:47;5.95;;;2.22;;
14268;SDS011;7218;51.480;7.006;2022-07-17T05:37:13;4.43;;;2.38;;
14268;SDS011;7218;51.480;7.006;2022-07-17T05:39:41;7.07;;;2.28;;
14268;SDS011;7218;51.480;7.006;2022-07-17T05:42:08;6.47;;;2.75;;
14268;SDS011;7218;51.480;7.006;2022-07-17T05:44:34;6.03;;;2.70;;
14268;SDS011;7218;51.480;7.006;2022-07-17T05:47:01;6.53;;;2.50;;
14268;SDS011;7218;51.480;7.006;2022-07-17T05:49:27;5.60;;;2.70;;
14268;SDS011;7218;51.480;7.006;2022-07-17T05:51:54;4.82;;;2.25;;
14268;SDS011;7218;51.480;7.006;2022-07-17T05:54:20;8.23;;;2.85;;
14268;SDS011;7218;51.480;7.006;2022-07-17T05:56:48;7.05;;;2.83;;
14268;SDS011;7218;51.480;7.006;2022-07-17T05:59:15;6.55;;;2.67;;
14268;SDS011;7218;51.480;7.006;2022-07-17T06:01:41;6.38;;;2.70;;
14268;SDS011;7218;51.480;7.006;2022-07-17T06:04:08;5.78;;;2.60;;
14268;SDS011;7218;51.480;7.006;2022-07-17T06:06:34;6.40;;;2.60;;
14268;SDS011;7218;51.480;7.006;2022-07-17T06:09:01;7.00;;;2.72;;
14268;SDS011;7218;51.480;7.006;2022-07-17T06:11:27;4.07;;;2.40;;
14268;SDS011;7218;51.480;7.006;2022-07-17T06:13:55;9.85;;;2.53;;
14268;SDS011;7218;51.480;7.006;2022-07-17T06:16:21;4.00;;;2.55;;
14268;SDS011;7218;51.480;7.006;2022-07-17T06:18:48;6.22;;;2.80;;
14268;SDS011;7218;51.480;7.006;2022-07-17T06:21:14;9.18;;;2.70;;
14268;SDS011;7218;51.480;7.006;2022-07-17T06:23:41;5.05;;;2.30;;
14268;SDS011;7218;51.480;7.006;2022-07-17T06:26:08;5.05;;;2.50;;
14268;SDS011;7218;51.480;7.006;2022-07-17T06:28:34;4.90;;;2.50;;
14268;SDS011;7218;51.480;7.006;2022-07-17T06:31:02;5.50;;;2.15;;
14268;SDS011;7218;51.480;7.006;2022-07-17T06:33:28;5.75;;;2.30;;
14268;SDS011;7218;51.480;7.006;2022-07-17T06:35:56;4.97;;;2.53;;
14268;SDS011;7218;51.480;7.006;2022-07-17T06:38:22;5.47;;;2.60;;
14268;SDS011;7218;51.480;7.006;2022-07-17T06:40:49;7.50;;;2.28;;
14268;SDS011;7218;51.480;7.006;2022-07-17T06:43:16;4.68;;;2.08;;
14268;SDS011;7218;51.480;7.006;2022-07-17T06:45:43;5.45;;;2.47;;
14268;SDS011;7218;51.480;7.006;2022-07-17T06:48:10;3.72;;;2.13;;
14268;SDS011;7218;51.480;7.006;2022-07-17T06:50:37;5.00;;;2.40;;
14268;SDS011;7218;51.480;7.006;2022-07-17T06:53:04;6.03;;;2.40;;
14268;SDS011;7218;51.480;7.006;2022-07-17T06:55:30;3.78;;;2.33;;
14268;SDS011;7218;51.480;7.006;2022-07-17T06:57:57;5.40;;;2.38;;
14268;SDS011;7218;51.480;7.006;2022-07-17T07:00:23;5.45;;;2.25;;
14268;SDS011;7218;51.480;7.006;2022-07-17T07:02:50;4.18;;;2.47;;
14268;SDS011;7218;51.480;7.006;2022-07-17T07:05:18;7.28;;;2.30;;
14268;SDS011;7218;51.480;7.006;2022-07-17T07:07:44;4.47;;;2.00;;
14268;SDS011;7218;51.480;7.006;2022-07-17T07:10:11;6.45;;;2.20;;
14268;SDS011;7218;51.480;7.006;2022-07-17T07:12:38;5.45;;;2.30;;
14268;SDS011;7218;51.480;7.006;2022-07-17T07:15:04;6.82;;;2.78;;
14268;SDS011;7218;51.480;7.006;2022-07-17T07:17:33;5.18;;;2.28;;
14268;SDS011;7218;51.480;7.006;2022-07-17T07:20:00;7.85;;;2.88;;
14268;SDS011;7218;51.480;7.006;2022-07-17T07:22:30;5.97;;;2.65;;
14268;SDS011;7218;51.480;7.006;2022-07-17T07:24:56;4.13;;;1.98;;
14268;SDS011;7218;51.480;7.006;2022-07-17T07:27:23;6.53;;;2.40;;
14268;SDS011;7218;51.480;7.006;2022-07-17T07:29:51;6.75;;;2.38;;
14268;SDS011;7218;51.480;7.006;2022-07-17T07:32:17;5.63;;;2.25;;
14268;SDS011;7218;51.480;7.006;2022-07-17T07:34:44;5.43;;;2.00;;
14268;SDS011;7218;51.480;7.006;2022-07-17T07:37:10;5.50;;;2.17;;
14268;SDS011;7218;51.480;7.006;2022-07-17T07:39:38;5.32;;;2.17;;
14268;SDS011;7218;51.480;7.006;2022-07-17T07:42:04;5.63;;;1.95;;
14268;SDS011;7218;51.480;7.006;2022-07-17T07:44:32;6.20;;;2.10;;
14268;SDS011;7218;51.480;7.006;2022-07-17T07:47:00;5.93;;;1.95;;
14268;SDS011;7218;51.480;7.006;2022-07-17T07:49:27;3.90;;;1.98;;
14268;SDS011;7218;51.480;7.006;2022-07-17T07:51:54;7.40;;;1.98;;
14268;SDS011;7218;51.480;7.006;2022-07-17T07:54:21;5.88;;;1.95;;
14268;SDS011;7218;51.480;7.006;2022-07-17T07:56:49;6.13;;;2.20;;
14268;SDS011;7218;51.480;7.006;2022-07-17T07:59:15;9.25;;;2.08;;
14268;SDS011;7218;51.480;7.006;2022-07-17T08:01:42;4.22;;;1.83;;
14268;SDS011;7218;51.480;7.006;2022-07-17T08:04:08;4.22;;;2.08;;
14268;SDS011;7218;51.480;7.006;2022-07-17T08:06:35;4.25;;;1.50;;
14268;SDS011;7218;51.480;7.006;2022-07-17T08:09:01;8.25;;;2.22;;
14268;SDS011;7218;51.480;7.006;2022-07-17T08:11:28;6.60;;;1.77;;
14268;SDS011;7218;51.480;7.006;2022-07-17T08:13:56;5.07;;;1.77;;
14268;SDS011;7218;51.480;7.006;2022-07-17T08:16:24;5.60;;;1.73;;
14268;SDS011;7218;51.480;7.006;2022-07-17T08:18:50;5.35;;;1.90;;
14268;SDS011;7218;51.480;7.006;2022-07-17T08:21:17;4.80;;;1.90;;
14268;SDS011;7218;51.480;7.006;2022-07-17T08:23:45;5.13;;;1.83;;
14268;SDS011;7218;51.480;7.006;2022-07-17T08:26:14;3.95;;;1.50;;
14268;SDS011;7218;51.480;7.006;2022-07-17T08:28:52;6.03;;;1.70;;
14268;SDS011;7218;51.480;7.006;2022-07-17T08:31:21;6.78;;;1.80;;
14268;SDS011;7218;51.480;7.006;2022-07-17T08:33:48;5.18;;;1.80;;
14268;SDS011;7218;51.480;7.006;2022-07-17T08:36:14;6.65;;;2.30;;
14268;SDS011;7218;51.480;7.006;2022-07-17T08:38:41;4.15;;;2.10;;
14268;SDS011;7218;51.480;7.006;2022-07-17T08:41:08;4.60;;;1.98;;
14268;SDS011;7218;51.480;7.006;2022-07-17T08:43:35;3.53;;;1.40;;
14268;SDS011;7218;51.480;7.006;2022-07-17T08:46:02;7.32;;;2.00;;
14268;SDS011;7218;51.480;7.006;2022-07-17T08:48:31;8.13;;;2.03;;
14268;SDS011;7218;51.480;7.006;2022-07-17T08:50:59;7.35;;;1.77;;
14268;SDS011;7218;51.480;7.006;2022-07-17T08:53:26;2.53;;;1.60;;
14268;SDS011;7218;51.480;7.006;2022-07-17T08:55:52;7.15;;;1.85;;
14268;SDS011;7218;51.480;7.006;2022-07-17T08:58:19;6.03;;;1.92;;
14268;SDS011;7218;51.480;7.006;2022-07-17T09:00:46;4.93;;;1.90;;
14268;SDS011;7218;51.480;7.006;2022-07-17T09:03:15;7.40;;;1.80;;
14268;SDS011;7218;51.480;7.006;2022-07-17T09:05:45;4.18;;;1.63;;
14268;SDS011;7218;51.480;7.006;2022-07-17T09:08:16;5.65;;;1.98;;
14268;SDS011;7218;51.480;7.006;2022-07-17T09:10:45;6.07;;;1.75;;
14268;SDS011;7218;51.480;7.006;2022-07-17T09:13:17;5.10;;;1.90;;
14268;SDS011;7218;51.480;7.006;2022-07-17T09:15:46;3.67;;;1.77;;
14268;SDS011;7218;51.480;7.006;2022-07-17T09:18:14;8.98;;;2.10;;
14268;SDS011;7218;51.480;7.006;2022-07-17T09:20:47;6.55;;;2.00;;
14268;SDS011;7218;51.480;7.006;2022-07-17T09:23:17;5.07;;;1.95;;
14268;SDS011;7218;51.480;7.006;2022-07-17T09:25:46;6.97;;;2.55;;
14268;SDS011;7218;51.480;7.006;2022-07-17T09:28:15;4.18;;;1.70;;
14268;SDS011;7218;51.480;7.006;2022-07-17T09:30:43;5.25;;;1.90;;
14268;SDS011;7218;51.480;7.006;2022-07-17T09:33:12;6.43;;;1.55;;
14268;SDS011;7218;51.480;7.006;2022-07-17T09:39:21;3.97;;;1.90;;
14268;SDS011;7218;51.480;7.006;2022-07-17T09:42:02;6.30;;;2.10;;
14268;SDS011;7218;51.480;7.006;2022-07-17T09:44:43;4.32;;;2.00;;
14268;SDS011;7218;51.480;7.006;2022-07-17T09:47:42;6.78;;;1.90;;
14268;SDS011;7218;51.480;7.006;2022-07-17T09:50:10;8.02;;;2.30;;
14268;SDS011;7218;51.480;7.006;2022-07-17T09:55:12;6.25;;;1.95;;
14268;SDS011;7218;51.480;7.006;2022-07-17T09:57:40;4.88;;;1.90;;
14268;SDS011;7218;51.480;7.006;2022-07-17T10:00:08;3.72;;;1.70;;
14268;SDS011;7218;51.480;7.006;2022-07-17T10:02:37;5.60;;;2.03;;
14268;SDS011;7218;51.480;7.006;2022-07-17T10:05:06;8.20;;;2.10;;
14268;SDS011;7218;51.480;7.006;2022-07-17T10:07:36;5.20;;;2.30;;
14268;SDS011;7218;51.480;7.006;2022-07-17T10:10:06;6.75;;;2.78;;
14268;SDS011;7218;51.480;7.006;2022-07-17T10:12:34;6.68;;;1.98;;
14268;SDS011;7218;51.480;7.006;2022-07-17T10:15:04;6.43;;;2.03;;
14268;SDS011;7218;51.480;7.006;2022-07-17T10:17:32;6.05;;;2.10;;
14268;SDS011;7218;51.480;7.006;2022-07-17T10:19:59;4.97;;;2.10;;
14268;SDS011;7218;51.480;7.006;2022-07-17T10:22:26;4.82;;;1.90;;
14268;SDS011;7218;51.480;7.006;2022-07-17T10:24:53;5.38;;;2.00;;
14268;SDS011;7218;51.480;7.006;2022-07-17T10:27:22;5.25;;;2.10;;
14268;SDS011;7218;51.480;7.006;2022-07-17T10:30:00;5.97;;;1.95;;
14268;SDS011;7218;51.480;7.006;2022-07-17T10:32:27;6.25;;;2.30;;
14268;SDS011;7218;51.480;7.006;2022-07-17T10:34:57;4.60;;;1.73;;
14268;SDS011;7218;51.480;7.006;2022-07-17T10:37:26;6.05;;;2.00;;
14268;SDS011;7218;51.480;7.006;2022-07-17T10:40:04;3.45;;;1.90;;
14268;SDS011;7218;51.480;7.006;2022-07-17T10:42:45;6.97;;;2.20;;
14268;SDS011;7218;51.480;7.006;2022-07-17T10:45:16;6.45;;;1.80;;
14268;SDS011;7218;51.480;7.006;2022-07-17T10:47:48;6.32;;;2.10;;
14268;SDS011;7218;51.480;7.006;2022-07-17T10:50:17;6.20;;;2.08;;
14268;SDS011;7218;51.480;7.006;2022-07-17T10:52:55;5.15;;;2.10;;
14268;SDS011;7218;51.480;7.006;2022-07-17T10:55:25;5.20;;;1.83;;
14268;SDS011;7218;51.480;7.006;2022-07-17T10:57:53;7.25;;;1.90;;
14268;SDS011;7218;51.480;7.006;2022-07-17T11:00:22;4.07;;;2.05;;
14268;SDS011;7218;51.480;7.006;2022-07-17T11:02:49;3.90;;;1.70;;
14268;SDS011;7218;51.480;7.006;2022-07-17T11:05:15;6.55;;;2.35;;
14268;SDS011;7218;51.480;7.006;2022-07-17T11:07:52;5.20;;;2.35;;
14268;SDS011;7218;51.480;7.006;2022-07-17T11:10:21;7.43;;;2.40;;
14268;SDS011;7218;51.480;7.006;2022-07-17T11:12:50;4.63;;;2.00;;
14268;SDS011;7218;51.480;7.006;2022-07-17T11:15:17;6.30;;;1.83;;
14268;SDS011;7218;51.480;7.006;2022-07-17T11:17:45;3.10;;;1.65;;
14268;SDS011;7218;51.480;7.006;2022-07-17T11:20:13;4.45;;;1.80;;
14268;SDS011;7218;51.480;7.006;2022-07-17T11:22:40;5.75;;;1.75;;
14268;SDS011;7218;51.480;7.006;2022-07-17T11:25:07;4.60;;;1.80;;
14268;SDS011;7218;51.480;7.006;2022-07-17T11:27:35;7.00;;;1.80;;
14268;SDS011;7218;51.480;7.006;2022-07-17T11:30:03;3.97;;;1.95;;
14268;SDS011;7218;51.480;7.006;2022-07-17T11:32:32;5.63;;;2.05;;
14268;SDS011;7218;51.480;7.006;2022-07-17T11:35:00;4.88;;;2.15;;
14268;SDS011;7218;51.480;7.006;2022-07-17T11:37:28;5.75;;;2.03;;
14268;SDS011;7218;51.480;7.006;2022-07-17T11:39:56;4.95;;;1.90;;
14268;SDS011;7218;51.480;7.006;2022-07-17T11:42:24;4.63;;;1.95;;
14268;SDS011;7218;51.480;7.006;2022-07-17T11:44:53;5.88;;;2.13;;
14268;SDS011;7218;51.480;7.006;2022-07-17T11:47:22;4.97;;;2.10;;
14268;SDS011;7218;51.480;7.006;2022-07-17T11:49:51;6.90;;;2.30;;
14268;SDS011;7218;51.480;7.006;2022-07-17T11:52:38;3.70;;;2.17;;
14268;SDS011;7218;51.480;7.006;2022-07-17T11:55:07;4.63;;;1.98;;
14268;SDS011;7218;51.480;7.006;2022-07-17T11:57:40;6.38;;;2.00;;
14268;SDS011;7218;51.480;7.006;2022-07-17T12:00:09;5.45;;;2.33;;
14268;SDS011;7218;51.480;7.006;2022-07-17T12:02:37;5.28;;;1.92;;
14268;SDS011;7218;51.480;7.006;2022-07-17T12:05:03;8.55;;;2.40;;
14268;SDS011;7218;51.480;7.006;2022-07-17T12:07:39;5.85;;;2.28;;
14268;SDS011;7218;51.480;7.006;2022-07-17T12:10:11;4.93;;;2.10;;
14268;SDS011;7218;51.480;7.006;2022-07-17T12:12:39;3.58;;;1.70;;
14268;SDS011;7218;51.480;7.006;2022-07-17T12:15:06;3.85;;;1.92;;
14268;SDS011;7218;51.480;7.006;2022-07-17T12:17:37;5.00;;;2.00;;
14268;SDS011;7218;51.480;7.006;2022-07-17T12:20:06;4.80;;;2.10;;
14268;SDS011;7218;51.480;7.006;2022-07-17T12:22:42;6.57;;;2.15;;
14268;SDS011;7218;51.480;7.006;2022-07-17T12:25:10;3.75;;;1.90;;
14268;SDS011;7218;51.480;7.006;2022-07-17T12:27:47;3.85;;;2.05;;
14268;SDS011;7218;51.480;7.006;2022-07-17T12:30:14;4.72;;;2.00;;
14268;SDS011;7218;51.480;7.006;2022-07-17T12:32:41;6.25;;;2.17;;
14268;SDS011;7218;51.480;7.006;2022-07-17T12:35:08;3.50;;;1.77;;
14268;SDS011;7218;51.480;7.006;2022-07-17T12:37:35;4.82;;;2.08;;
14268;SDS011;7218;51.480;7.006;2022-07-17T12:40:03;4.72;;;1.85;;
14268;SDS011;7218;51.480;7.006;2022-07-17T12:42:30;3.33;;;1.80;;
14268;SDS011;7218;51.480;7.006;2022-07-17T12:44:56;4.25;;;1.88;;
14268;SDS011;7218;51.480;7.006;2022-07-17T12:47:23;8.10;;;3.28;;
14268;SDS011;7218;51.480;7.006;2022-07-17T12:49:49;6.60;;;2.10;;
14268;SDS011;7218;51.480;7.006;2022-07-17T12:52:16;4.32;;;1.98;;
14268;SDS011;7218;51.480;7.006;2022-07-17T12:54:42;4.53;;;1.70;;
14268;SDS011;7218;51.480;7.006;2022-07-17T12:57:10;2.67;;;1.58;;
14268;SDS011;7218;51.480;7.006;2022-07-17T12:59:37;4.68;;;2.00;;
14268;SDS011;7218;51.480;7.006;2022-07-17T13:02:04;4.75;;;1.77;;
14268;SDS011;7218;51.480;7.006;2022-07-17T13:04:30;4.85;;;1.65;;
14268;SDS011;7218;51.480;7.006;2022-07-17T13:06:57;2.80;;;1.63;;
14268;SDS011;7218;51.480;7.006;2022-07-17T13:09:23;4.63;;;2.00;;
14268;SDS011;7218;51.480;7.006;2022-07-17T13:11:50;5.28;;;1.80;;
14268;SDS011;7218;51.480;7.006;2022-07-17T13:14:18;4.18;;;1.70;;
14268;SDS011;7218;51.480;7.006;2022-07-17T13:16:45;4.40;;;2.00;;
14268;SDS011;7218;51.480;7.006;2022-07-17T13:19:11;3.92;;;1.70;;
14268;SDS011;7218;51.480;7.006;2022-07-17T13:21:38;5.00;;;2.00;;
14268;SDS011;7218;51.480;7.006;2022-07-17T13:24:06;6.35;;;1.90;;
14268;SDS011;7218;51.480;7.006;2022-07-17T13:26:32;2.90;;;1.60;;
14268;SDS011;7218;51.480;7.006;2022-07-17T13:28:59;4.47;;;1.85;;
14268;SDS011;7218;51.480;7.006;2022-07-17T13:31:27;3.90;;;1.85;;
14268;SDS011;7218;51.480;7.006;2022-07-17T13:33:53;4.15;;;1.80;;
14268;SDS011;7218;51.480;7.006;2022-07-17T13:36:20;3.05;;;1.50;;
14268;SDS011;7218;51.480;7.006;2022-07-17T13:38:46;4.28;;;1.70;;
14268;SDS011;7218;51.480;7.006;2022-07-17T13:41:13;4.30;;;1.55;;
14268;SDS011;7218;51.480;7.006;2022-07-17T13:43:40;4.40;;;1.70;;
14268;SDS011;7218;51.480;7.006;2022-07-17T13:46:06;3.50;;;1.80;;
14268;SDS011;7218;51.480;7.006;2022-07-17T13:48:34;2.20;;;1.63;;
14268;SDS011;7218;51.480;7.006;2022-07-17T13:51:01;3.38;;;1.70;;
14268;SDS011;7218;51.480;7.006;2022-07-17T13:53:27;2.13;;;1.60;;
14268;SDS011;7218;51.480;7.006;2022-07-17T13:55:55;3.88;;;1.45;;
14268;SDS011;7218;51.480;7.006;2022-07-17T13:58:21;4.75;;;1.73;;
14268;SDS011;7218;51.480;7.006;2022-07-17T14:00:48;4.45;;;1.48;;
14268;SDS011;7218;51.480;7.006;2022-07-17T14:03:15;2.75;;;1.45;;
14268;SDS011;7218;51.480;7.006;2022-07-17T14:05:43;3.60;;;1.45;;
14268;SDS011;7218;51.480;7.006;2022-07-17T14:08:10;3.60;;;1.70;;
14268;SDS011;7218;51.480;7.006;2022-07-17T14:10:37;4.03;;;1.88;;
14268;SDS011;7218;51.480;7.006;2022-07-17T14:13:04;3.38;;;1.90;;
14268;SDS011;7218;51.480;7.006;2022-07-17T14:15:30;4.22;;;1.73;;
14268;SDS011;7218;51.480;7.006;2022-07-17T14:17:56;2.25;;;1.40;;
14268;SDS011;7218;51.480;7.006;2022-07-17T14:20:23;5.70;;;1.67;;
14268;SDS011;7218;51.480;7.006;2022-07-17T14:22:51;2.42;;;1.60;;
14268;SDS011;7218;51.480;7.006;2022-07-17T14:25:17;3.90;;;1.80;;
14268;SDS011;7218;51.480;7.006;2022-07-17T14:27:44;5.70;;;1.70;;
14268;SDS011;7218;51.480;7.006;2022-07-17T14:30:13;4.20;;;1.67;;
14268;SDS011;7218;51.480;7.006;2022-07-17T14:32:40;4.53;;;1.50;;
14268;SDS011;7218;51.480;7.006;2022-07-17T14:35:07;4.60;;;1.70;;
14268;SDS011;7218;51.480;7.006;2022-07-17T14:37:34;4.90;;;1.73;;
14268;SDS011;7218;51.480;7.006;2022-07-17T14:40:02;4.00;;;1.60;;
14268;SDS011;7218;51.480;7.006;2022-07-17T14:42:30;1.83;;;1.40;;
14268;SDS011;7218;51.480;7.006;2022-07-17T14:44:58;3.83;;;1.70;;
14268;SDS011;7218;51.480;7.006;2022-07-17T14:47:24;4.10;;;1.98;;
14268;SDS011;7218;51.480;7.006;2022-07-17T14:49:51;3.05;;;1.60;;
14268;SDS011;7218;51.480;7.006;2022-07-17T14:52:17;6.63;;;1.70;;
14268;SDS011;7218;51.480;7.006;2022-07-17T14:54:44;2.75;;;1.50;;
14268;SDS011;7218;51.480;7.006;2022-07-17T14:57:12;2.55;;;1.60;;
14268;SDS011;7218;51.480;7.006;2022-07-17T14:59:39;2.92;;;2.00;;
14268;SDS011;7218;51.480;7.006;2022-07-17T15:02:06;2.70;;;1.60;;
14268;SDS011;7218;51.480;7.006;2022-07-17T15:04:32;5.70;;;1.55;;
14268;SDS011;7218;51.480;7.006;2022-07-17T15:07:00;2.95;;;1.65;;
14268;SDS011;7218;51.480;7.006;2022-07-17T15:09:27;5.45;;;1.63;;